createdAt,value
2023-03-18T00:01:13.391Z,3.85
2023-03-18T00:03:40.826Z,3.95
2023-03-18T00:06:13.152Z,3.80
2023-03-18T00:08:41.267Z,3.10
2023-03-18T00:11:11.193Z,3.58
2023-03-18T00:13:39.806Z,3.90
2023-03-18T00:16:08.000Z,3.87
2023-03-18T00:18:36.438Z,3.78
2023-03-18T00:21:04.939Z,4.10
2023-03-18T00:23:33.419Z,3.33
2023-03-18T00:26:01.393Z,4.18
2023-03-18T00:28:29.477Z,3.78
2023-03-18T00:31:04.089Z,3.40
2023-03-18T00:33:31.736Z,3.97
2023-03-18T00:35:59.738Z,4.45
2023-03-18T00:38:26.932Z,4.60
2023-03-18T00:40:54.042Z,4.37
2023-03-18T00:43:23.183Z,4.47
2023-03-18T00:45:51.178Z,4.37
2023-03-18T00:48:18.438Z,5.00
2023-03-18T00:50:45.799Z,4.07
2023-03-18T00:53:13.185Z,5.12
2023-03-18T00:55:42.083Z,4.30
2023-03-18T00:58:10.622Z,4.00
2023-03-18T01:00:41.544Z,4.32
2023-03-18T01:03:08.984Z,4.30
2023-03-18T01:05:38.257Z,4.32
2023-03-18T01:08:05.778Z,4.12
2023-03-18T01:10:33.184Z,4.60
2023-03-18T01:13:00.841Z,4.37
2023-03-18T01:15:28.330Z,4.10
2023-03-18T01:17:57.060Z,3.80
2023-03-18T01:20:25.520Z,4.20
2023-03-18T01:22:53.177Z,3.62
2023-03-18T01:25:20.745Z,3.25
2023-03-18T01:27:49.143Z,3.20
2023-03-18T01:30:16.310Z,3.47
2023-03-18T01:32:44.036Z,3.30
2023-03-18T01:35:12.775Z,3.17
2023-03-18T01:37:42.138Z,2.47
2023-03-18T01:40:11.410Z,2.95
2023-03-18T01:42:39.406Z,2.83
2023-03-18T01:45:28.665Z,2.70
2023-03-18T01:47:58.208Z,2.37
2023-03-18T01:50:36.788Z,3.45
2023-03-18T01:53:12.485Z,2.53
2023-03-18T01:55:41.044Z,2.90
2023-03-18T01:58:14.055Z,2.97
2023-03-18T02:00:44.765Z,2.53
2023-03-18T02:03:13.007Z,3.37
2023-03-18T02:05:40.608Z,2.45
2023-03-18T02:08:08.243Z,2.28
2023-03-18T02:10:36.794Z,2.08
2023-03-18T02:13:06.831Z,2.75
2023-03-18T02:15:35.531Z,2.72
2023-03-18T02:18:07.493Z,2.67
2023-03-18T02:20:40.723Z,2.67
2023-03-18T02:23:27.308Z,2.62
2023-03-18T02:26:18.520Z,4.07
2023-03-18T02:28:46.354Z,3.17
2023-03-18T02:31:16.672Z,3.12
2023-03-18T02:33:44.803Z,3.30
2023-03-18T02:36:17.905Z,2.62
2023-03-18T02:38:46.581Z,3.25
2023-03-18T02:41:23.468Z,2.62
2023-03-18T02:43:52.327Z,3.42
2023-03-18T02:46:41.243Z,3.20
2023-03-18T02:49:09.307Z,2.87
2023-03-18T02:51:37.734Z,3.33
2023-03-18T02:54:13.859Z,3.47
2023-03-18T02:56:42.670Z,3.17
2023-03-18T02:59:11.173Z,3.37
2023-03-18T03:01:42.123Z,3.00
2023-03-18T03:04:10.315Z,2.85
2023-03-18T03:06:37.782Z,3.60
2023-03-18T03:09:06.558Z,3.62
2023-03-18T03:11:36.343Z,3.03
2023-03-18T03:14:05.624Z,3.58
2023-03-18T03:16:33.392Z,3.42
2023-03-18T03:19:00.867Z,3.60
2023-03-18T03:21:29.315Z,3.53
2023-03-18T03:23:56.454Z,3.50
2023-03-18T03:26:23.999Z,3.30
2023-03-18T03:28:51.677Z,3.15
2023-03-18T03:31:20.135Z,3.67
2023-03-18T03:33:47.774Z,3.22
2023-03-18T03:36:16.478Z,3.40
2023-03-18T03:38:44.129Z,3.62
2023-03-18T03:41:12.920Z,2.80
2023-03-18T03:43:40.937Z,3.28
2023-03-18T03:46:09.666Z,3.03
2023-03-18T03:48:38.195Z,3.53
2023-03-18T03:51:07.524Z,3.28
2023-03-18T03:53:36.110Z,3.92
2023-03-18T03:56:04.419Z,2.83
2023-03-18T03:58:31.545Z,3.78
2023-03-18T04:00:58.642Z,3.00
2023-03-18T04:03:26.052Z,3.55
2023-03-18T04:05:53.210Z,3.53
2023-03-18T04:08:22.564Z,3.70
2023-03-18T04:10:49.951Z,2.70
2023-03-18T04:13:17.071Z,3.62
2023-03-18T04:15:46.874Z,3.15
2023-03-18T04:18:15.171Z,3.65
2023-03-18T04:20:42.754Z,3.25
2023-03-18T04:23:10.301Z,3.28
2023-03-18T04:25:37.659Z,3.45
2023-03-18T04:28:04.888Z,2.87
2023-03-18T04:30:32.348Z,3.40
2023-03-18T04:33:01.494Z,3.47
2023-03-18T04:35:29.640Z,4.05
2023-03-18T04:37:56.880Z,3.75
2023-03-18T04:40:24.674Z,3.45
2023-03-18T04:42:52.382Z,3.62
2023-03-18T04:45:22.786Z,4.07
2023-03-18T04:47:50.835Z,4.07
2023-03-18T04:50:19.347Z,3.45
2023-03-18T04:52:47.257Z,3.45
2023-03-18T04:55:18.063Z,4.10
2023-03-18T04:57:46.348Z,3.72
2023-03-18T05:00:17.284Z,4.10
2023-03-18T05:02:45.534Z,4.68
2023-03-18T05:05:13.779Z,4.15
2023-03-18T05:07:42.385Z,4.78
2023-03-18T05:10:10.930Z,3.92
2023-03-18T05:12:38.608Z,4.12
2023-03-18T05:15:07.466Z,4.18
2023-03-18T05:17:35.932Z,4.05
2023-03-18T05:20:04.389Z,4.00
2023-03-18T05:22:31.546Z,3.87
2023-03-18T05:25:00.438Z,4.30
2023-03-18T05:27:29.748Z,3.87
2023-03-18T05:29:57.620Z,4.30
2023-03-18T05:32:26.461Z,3.97
2023-03-18T05:34:54.060Z,3.80
2023-03-18T05:37:21.135Z,3.53
2023-03-18T05:39:49.762Z,4.07
2023-03-18T05:42:17.421Z,4.20
2023-03-18T05:44:44.757Z,4.15
2023-03-18T05:47:14.285Z,4.90
2023-03-18T05:49:43.649Z,4.18
2023-03-18T05:52:12.307Z,4.18
2023-03-18T05:54:41.795Z,3.10
2023-03-18T05:57:09.312Z,3.55
2023-03-18T05:59:37.185Z,3.95
2023-03-18T06:02:04.728Z,4.82
2023-03-18T06:04:32.156Z,4.30
2023-03-18T06:06:59.297Z,3.72
2023-03-18T06:09:27.542Z,3.70
2023-03-18T06:11:55.105Z,4.25
2023-03-18T06:14:22.648Z,3.97
2023-03-18T06:16:50.522Z,4.28
2023-03-18T06:19:21.965Z,4.85
2023-03-18T06:21:49.302Z,3.05
2023-03-18T06:24:18.782Z,3.97
2023-03-18T06:26:46.509Z,4.15
2023-03-18T06:29:13.720Z,4.57
2023-03-18T06:31:40.782Z,4.12
2023-03-18T06:34:08.600Z,3.83
2023-03-18T06:36:36.030Z,4.62
2023-03-18T06:39:04.207Z,4.43
2023-03-18T06:41:31.632Z,3.97
2023-03-18T06:43:59.486Z,4.82
2023-03-18T06:46:29.525Z,4.12
2023-03-18T06:48:57.063Z,4.93
2023-03-18T06:51:24.739Z,4.00
2023-03-18T06:53:51.982Z,4.35
2023-03-18T06:56:19.437Z,3.90
2023-03-18T06:58:47.294Z,4.05
2023-03-18T07:01:14.422Z,4.07
2023-03-18T07:03:43.678Z,4.00
2023-03-18T07:06:10.815Z,4.28
2023-03-18T07:08:38.810Z,4.40
2023-03-18T07:11:07.247Z,4.85
2023-03-18T07:13:35.796Z,4.37
2023-03-18T07:16:03.729Z,4.65
2023-03-18T07:18:35.070Z,4.45
2023-03-18T07:21:02.095Z,4.20
2023-03-18T07:23:29.280Z,4.72
2023-03-18T07:25:57.501Z,4.82
2023-03-18T07:28:24.748Z,5.53
2023-03-18T07:30:54.158Z,4.28
2023-03-18T07:33:21.720Z,4.45
2023-03-18T07:35:48.798Z,5.00
2023-03-18T07:38:15.925Z,5.10
2023-03-18T07:40:43.281Z,4.50
2023-03-18T07:43:10.326Z,4.22
2023-03-18T07:45:37.490Z,4.30
2023-03-18T07:48:05.673Z,4.20
2023-03-18T07:50:32.819Z,4.55
2023-03-18T07:52:59.928Z,4.00
2023-03-18T07:55:28.687Z,3.95
2023-03-18T07:57:55.814Z,5.03
2023-03-18T08:00:23.238Z,4.37
2023-03-18T08:02:50.684Z,4.37
2023-03-18T08:05:19.403Z,5.03
2023-03-18T08:07:46.523Z,4.40
2023-03-18T08:10:14.933Z,4.55
2023-03-18T08:12:52.725Z,4.72
2023-03-18T08:15:22.598Z,4.62
2023-03-18T08:17:50.683Z,4.82
2023-03-18T08:20:18.157Z,5.55
2023-03-18T08:22:46.089Z,5.90
2023-03-18T08:25:14.704Z,4.20
2023-03-18T08:27:42.149Z,4.87
2023-03-18T08:30:10.858Z,4.70
2023-03-18T08:32:38.400Z,5.45
2023-03-18T08:35:05.925Z,5.28
2023-03-18T08:37:33.763Z,4.65
2023-03-18T08:40:02.332Z,4.90
2023-03-18T08:42:31.778Z,4.30
2023-03-18T08:44:59.335Z,5.15
2023-03-18T08:47:27.424Z,5.05
2023-03-18T08:49:55.129Z,5.12
2023-03-18T08:52:22.407Z,4.40
2023-03-18T08:54:50.324Z,4.90
2023-03-18T08:57:18.780Z,5.25
2023-03-18T08:59:46.935Z,5.00
2023-03-18T09:02:17.165Z,5.40
2023-03-18T09:04:45.126Z,4.80
2023-03-18T09:07:13.420Z,4.85
2023-03-18T09:09:43.850Z,5.07
2023-03-18T09:12:12.687Z,4.70
2023-03-18T09:14:44.012Z,4.55
2023-03-18T09:17:11.358Z,5.25
2023-03-18T09:19:38.570Z,5.35
2023-03-18T09:22:06.374Z,4.47
2023-03-18T09:24:33.373Z,4.75
2023-03-18T09:27:00.485Z,4.68
2023-03-18T09:29:27.850Z,4.12
2023-03-18T09:31:55.737Z,4.35
2023-03-18T09:34:23.353Z,3.78
2023-03-18T09:36:53.373Z,3.97
2023-03-18T09:39:21.823Z,4.00
2023-03-18T09:41:48.878Z,4.47
2023-03-18T09:44:23.978Z,4.03
2023-03-18T09:46:54.018Z,3.80
2023-03-18T09:49:57.648Z,4.30
2023-03-18T09:52:50.521Z,4.62
2023-03-18T09:55:25.822Z,4.40
2023-03-18T09:57:57.467Z,5.43
2023-03-18T10:00:36.956Z,4.68
2023-03-18T10:03:07.187Z,5.15
2023-03-18T10:05:48.354Z,4.62
2023-03-18T10:08:41.528Z,4.35
2023-03-18T10:11:17.325Z,4.05
2023-03-18T10:13:52.477Z,4.12
2023-03-18T10:16:26.371Z,4.05
2023-03-18T10:18:54.634Z,3.42
2023-03-18T10:21:27.682Z,3.65
2023-03-18T10:23:57.304Z,3.62
2023-03-18T10:26:33.384Z,4.30
2023-03-18T10:29:37.867Z,5.32
2023-03-18T10:32:09.417Z,4.55
2023-03-18T10:34:41.839Z,3.72
2023-03-18T10:37:44.093Z,3.42
2023-03-18T10:40:13.874Z,3.33
2023-03-18T10:42:41.868Z,3.83
2023-03-18T10:45:36.160Z,3.25
2023-03-18T10:48:13.658Z,5.93
2023-03-18T10:51:02.478Z,4.03
2023-03-18T10:53:39.283Z,3.90
2023-03-18T10:56:09.066Z,3.90
2023-03-18T10:58:41.445Z,3.78
2023-03-18T11:01:13.135Z,3.67
2023-03-18T11:04:06.778Z,3.78
2023-03-18T11:06:39.603Z,3.72
2023-03-18T11:09:10.657Z,4.03
2023-03-18T11:11:42.945Z,3.55
2023-03-18T11:14:17.866Z,3.50
2023-03-18T11:16:50.396Z,4.18
2023-03-18T11:19:35.431Z,3.00
2023-03-18T11:22:25.864Z,3.92
2023-03-18T11:25:17.200Z,4.07
2023-03-18T11:27:52.249Z,3.72
2023-03-18T11:30:38.641Z,3.85
2023-03-18T11:33:14.296Z,3.83
2023-03-18T11:35:53.776Z,3.47
2023-03-18T11:38:22.583Z,3.20
2023-03-18T11:40:50.008Z,3.62
2023-03-18T11:43:21.987Z,3.83
2023-03-18T11:45:54.268Z,4.00
2023-03-18T11:48:42.090Z,3.75
2023-03-18T11:51:35.024Z,3.58
2023-03-18T11:54:31.028Z,3.60
2023-03-18T11:57:07.527Z,3.67
2023-03-18T12:00:05.989Z,3.55
2023-03-18T12:02:36.260Z,3.33
2023-03-18T12:05:21.657Z,4.57
2023-03-18T12:08:09.996Z,3.95
2023-03-18T12:10:41.515Z,3.05
2023-03-18T12:13:57.009Z,3.83
2023-03-18T12:19:11.585Z,4.35
2023-03-18T12:21:51.507Z,4.05
2023-03-18T12:24:37.497Z,4.70
2023-03-18T12:27:16.979Z,4.25
2023-03-18T12:30:12.693Z,3.78
2023-03-18T12:32:57.912Z,4.35
2023-03-18T12:35:30.862Z,4.50
2023-03-18T12:38:25.786Z,4.15
2023-03-18T12:41:57.781Z,3.85
2023-03-18T12:44:24.707Z,3.75
2023-03-18T12:47:06.802Z,3.62
2023-03-18T12:49:45.836Z,3.67
2023-03-18T12:52:40.098Z,4.72
2023-03-18T12:55:17.472Z,3.72
2023-03-18T12:57:55.102Z,7.65
2023-03-18T13:00:31.346Z,4.43
2023-03-18T13:03:07.728Z,3.60
2023-03-18T13:05:41.237Z,4.80
2023-03-18T13:08:46.055Z,3.50
2023-03-18T13:11:47.107Z,4.10
2023-03-18T13:14:18.080Z,10.60
2023-03-18T13:16:46.996Z,4.03
2023-03-18T13:19:14.307Z,3.55
2023-03-18T13:21:44.526Z,4.28
2023-03-18T13:24:34.295Z,4.90
2023-03-18T13:27:19.771Z,4.00
2023-03-18T13:29:49.968Z,4.28
2023-03-18T13:32:41.797Z,4.15
2023-03-18T13:35:16.005Z,4.65
2023-03-18T13:38:14.575Z,3.90
2023-03-18T13:40:53.934Z,4.43
2023-03-18T13:43:23.432Z,5.05
2023-03-18T13:45:52.751Z,4.97
2023-03-18T13:48:32.004Z,4.07
2023-03-18T13:51:00.250Z,4.37
2023-03-18T13:53:32.777Z,4.05
2023-03-18T13:56:03.436Z,4.60
2023-03-18T13:58:36.320Z,4.60
2023-03-18T14:01:33.047Z,4.53
2023-03-18T14:04:20.124Z,4.30
2023-03-18T14:06:51.847Z,4.43
2023-03-18T14:09:35.349Z,4.00
2023-03-18T14:12:21.358Z,4.87
2023-03-18T14:14:51.502Z,3.72
2023-03-18T14:17:49.300Z,3.83
2023-03-18T14:20:19.645Z,4.32
2023-03-18T14:22:49.037Z,3.90
2023-03-18T14:25:23.206Z,4.43
2023-03-18T14:27:54.897Z,3.53
2023-03-18T14:30:34.808Z,3.83
2023-03-18T14:33:18.168Z,4.37
2023-03-18T14:36:01.851Z,3.92
2023-03-18T14:38:52.526Z,3.03
2023-03-18T14:41:24.522Z,3.53
2023-03-18T14:44:31.151Z,3.47
2023-03-18T14:47:00.498Z,3.75
2023-03-18T14:49:59.777Z,3.70
2023-03-18T14:52:34.806Z,3.45
2023-03-18T14:55:08.848Z,3.42
2023-03-18T14:57:36.680Z,3.20
2023-03-18T15:00:06.931Z,3.60
2023-03-18T15:02:37.440Z,3.60
2023-03-18T15:05:06.537Z,3.67
2023-03-18T15:07:39.855Z,3.60
2023-03-18T15:10:11.031Z,3.10
2023-03-18T15:12:38.457Z,3.25
2023-03-18T15:15:07.176Z,3.65
2023-03-18T15:17:34.629Z,4.10
2023-03-18T15:20:01.856Z,3.03
2023-03-18T15:22:31.402Z,3.28
2023-03-18T15:25:04.687Z,3.10
2023-03-18T15:27:34.130Z,2.83
2023-03-18T15:30:05.308Z,2.72
2023-03-18T15:32:43.708Z,3.00
2023-03-18T15:35:10.993Z,2.75
2023-03-18T15:37:41.163Z,3.17
2023-03-18T15:40:23.433Z,3.35
2023-03-18T15:42:50.995Z,2.80
2023-03-18T15:45:22.218Z,2.85
2023-03-18T15:47:49.232Z,3.45
2023-03-18T15:50:22.479Z,2.90
2023-03-18T15:52:50.155Z,2.70
2023-03-18T15:55:29.430Z,3.12
2023-03-18T15:57:58.157Z,3.00
2023-03-18T16:00:25.878Z,2.97
2023-03-18T16:02:53.902Z,3.33
2023-03-18T16:05:25.627Z,3.67
2023-03-18T16:07:54.086Z,3.50
2023-03-18T16:10:23.797Z,3.42
2023-03-18T16:12:54.074Z,3.28
2023-03-18T16:15:24.085Z,3.75
2023-03-18T16:17:53.385Z,3.65
2023-03-18T16:20:28.261Z,3.80
2023-03-18T16:22:56.476Z,3.37
2023-03-18T16:25:26.801Z,3.65
2023-03-18T16:27:56.392Z,4.00
2023-03-18T16:30:29.688Z,4.18
2023-03-18T16:32:57.974Z,4.07
2023-03-18T16:35:27.833Z,4.18
2023-03-18T16:37:55.109Z,4.10
2023-03-18T16:40:24.864Z,4.15
2023-03-18T16:42:53.097Z,5.03
2023-03-18T16:45:28.181Z,3.85
2023-03-18T16:47:59.460Z,4.90
2023-03-18T16:50:34.141Z,4.93
2023-03-18T16:53:03.032Z,4.57
2023-03-18T16:55:30.195Z,5.60
2023-03-18T16:57:59.322Z,4.60
2023-03-18T17:00:32.988Z,6.28
2023-03-18T17:03:01.597Z,6.55
2023-03-18T17:05:29.046Z,8.57
2023-03-18T17:07:56.136Z,8.52
2023-03-18T17:10:24.781Z,9.10
2023-03-18T17:13:00.328Z,8.45
2023-03-18T17:15:35.140Z,8.35
2023-03-18T17:18:07.721Z,16.05
2023-03-18T17:20:34.757Z,13.55
2023-03-18T17:23:01.863Z,10.02
2023-03-18T17:25:30.413Z,10.85
2023-03-18T17:28:00.144Z,8.85
2023-03-18T17:30:30.386Z,9.60
2023-03-18T17:32:58.487Z,9.25
2023-03-18T17:35:25.712Z,8.93
2023-03-18T17:37:54.531Z,8.00
2023-03-18T17:40:23.210Z,9.02
2023-03-18T17:42:51.810Z,8.00
2023-03-18T17:45:34.955Z,9.38
2023-03-18T17:48:21.947Z,11.12
2023-03-18T17:50:51.421Z,11.15
2023-03-18T17:53:25.398Z,10.43
2023-03-18T17:55:53.631Z,11.32
2023-03-18T17:58:22.555Z,9.13
2023-03-18T18:00:50.571Z,9.20
2023-03-18T18:03:26.666Z,8.25
2023-03-18T18:05:55.145Z,8.27
2023-03-18T18:08:25.450Z,9.27
2023-03-18T18:10:54.626Z,8.95
2023-03-18T18:13:23.047Z,8.40
2023-03-18T18:15:51.094Z,9.43
2023-03-18T18:18:25.716Z,8.80
2023-03-18T18:23:33.541Z,9.27
2023-03-18T18:26:14.548Z,8.40
2023-03-18T18:28:44.899Z,8.52
2023-03-18T18:31:13.145Z,7.95
2023-03-18T18:33:45.581Z,8.60
2023-03-18T18:36:16.423Z,9.32
2023-03-18T18:38:43.776Z,9.35
2023-03-18T18:41:10.880Z,10.23
2023-03-18T18:43:38.356Z,10.75
2023-03-18T18:46:14.740Z,9.75
2023-03-18T18:48:49.082Z,11.25
2023-03-18T18:51:18.544Z,13.07
2023-03-18T18:53:46.503Z,11.43
2023-03-18T18:56:14.866Z,11.52
2023-03-18T18:58:42.348Z,10.75
2023-03-18T19:01:11.823Z,10.95
2023-03-18T19:03:41.467Z,9.32
2023-03-18T19:06:22.090Z,9.20
2023-03-18T19:08:49.712Z,9.73
2023-03-18T19:11:16.826Z,9.07
2023-03-18T19:13:44.934Z,9.40
2023-03-18T19:16:28.633Z,10.00
2023-03-18T19:18:55.935Z,10.77
2023-03-18T19:21:23.686Z,10.23
2023-03-18T19:23:51.159Z,10.35
2023-03-18T19:26:19.535Z,10.27
2023-03-18T19:28:57.668Z,10.60
2023-03-18T19:31:30.420Z,10.95
2023-03-18T19:33:59.950Z,10.52
2023-03-18T19:36:29.410Z,12.40
2023-03-18T19:39:01.292Z,10.18
2023-03-18T19:41:29.277Z,11.07
2023-03-18T19:44:01.900Z,12.13
2023-03-18T19:46:38.604Z,10.15
2023-03-18T19:49:25.101Z,10.10
2023-03-18T19:51:52.991Z,9.32
2023-03-18T19:54:24.250Z,10.32
2023-03-18T19:56:52.565Z,9.82
2023-03-18T19:59:23.128Z,10.35
2023-03-18T20:01:52.342Z,9.45
2023-03-18T20:04:20.603Z,10.18
2023-03-18T20:06:47.759Z,9.55
2023-03-18T20:09:15.109Z,9.43
2023-03-18T20:11:42.553Z,9.30
2023-03-18T20:14:22.119Z,9.00
2023-03-18T20:16:49.722Z,10.88
2023-03-18T20:19:16.877Z,9.68
2023-03-18T20:21:44.150Z,9.68
2023-03-18T20:24:14.160Z,8.90
2023-03-18T20:26:41.262Z,9.68
2023-03-18T20:29:19.876Z,10.52
2023-03-18T20:31:47.481Z,9.88
2023-03-18T20:34:14.652Z,9.75
2023-03-18T20:36:42.600Z,10.75
2023-03-18T20:39:20.725Z,9.75
2023-03-18T20:41:48.490Z,9.55
2023-03-18T20:44:16.558Z,9.65
2023-03-18T20:46:43.657Z,9.65
2023-03-18T20:49:10.818Z,9.98
2023-03-18T20:51:40.751Z,10.82
2023-03-18T20:54:18.896Z,9.38
2023-03-18T20:56:46.995Z,10.38
2023-03-18T20:59:14.193Z,8.60
2023-03-18T21:01:41.867Z,9.70
2023-03-18T21:04:12.686Z,8.18
2023-03-18T21:06:43.384Z,7.97
2023-03-18T21:09:12.322Z,7.70
2023-03-18T21:11:39.727Z,7.45
2023-03-18T21:14:06.962Z,9.15
2023-03-18T21:16:37.691Z,7.87
2023-03-18T21:19:05.274Z,7.90
2023-03-18T21:21:38.315Z,7.78
2023-03-18T21:24:29.309Z,7.20
2023-03-18T21:27:04.808Z,8.82
2023-03-18T21:29:33.358Z,7.80
2023-03-18T21:32:02.462Z,7.97
2023-03-18T21:34:29.866Z,7.35
2023-03-18T21:36:57.360Z,6.55
2023-03-18T21:39:24.510Z,7.00
2023-03-18T21:41:52.273Z,7.28
2023-03-18T21:44:21.836Z,7.35
2023-03-18T21:46:48.941Z,6.68
2023-03-18T21:49:16.077Z,6.12
2023-03-18T21:51:44.640Z,7.15
2023-03-18T21:54:17.755Z,6.72
2023-03-18T21:56:45.162Z,5.97
2023-03-18T21:59:12.274Z,6.65
2023-03-18T22:01:40.078Z,6.60
2023-03-18T22:04:07.829Z,6.95
2023-03-18T22:06:34.991Z,6.87
2023-03-18T22:09:02.299Z,6.10
2023-03-18T22:11:30.439Z,7.12
2023-03-18T22:13:57.520Z,6.28
2023-03-18T22:16:25.312Z,6.45
2023-03-18T22:18:52.730Z,7.15
2023-03-18T22:21:24.361Z,5.85
2023-03-18T22:23:52.230Z,6.80
2023-03-18T22:26:21.339Z,6.40
2023-03-18T22:28:49.698Z,7.18
2023-03-18T22:31:26.370Z,6.82
2023-03-18T22:33:54.527Z,7.05
2023-03-18T22:36:21.931Z,6.62
2023-03-18T22:38:49.204Z,7.05
2023-03-18T22:41:22.292Z,7.85
2023-03-18T22:43:50.326Z,6.85
2023-03-18T22:46:18.212Z,6.12
2023-03-18T22:48:45.560Z,6.50
2023-03-18T22:51:28.238Z,6.85
2023-03-18T22:53:55.750Z,6.70
2023-03-18T22:56:23.327Z,6.72
2023-03-18T22:58:50.748Z,6.82
2023-03-18T23:01:24.768Z,8.07
2023-03-18T23:03:51.856Z,7.70
2023-03-18T23:06:23.643Z,7.75
2023-03-18T23:08:50.884Z,7.37
2023-03-18T23:11:20.011Z,6.40
2023-03-18T23:13:49.919Z,6.40
2023-03-18T23:16:20.442Z,7.75
2023-03-18T23:18:48.957Z,6.93
2023-03-18T23:21:17.595Z,7.85
2023-03-18T23:23:44.920Z,7.85
2023-03-18T23:26:13.037Z,7.60
2023-03-18T23:28:47.156Z,6.95
2023-03-18T23:31:15.765Z,7.53
2023-03-18T23:33:42.988Z,7.82
2023-03-18T23:36:10.657Z,7.60
2023-03-18T23:38:38.539Z,8.00
2023-03-18T23:41:06.309Z,7.68
2023-03-18T23:43:33.414Z,7.28
2023-03-18T23:46:01.824Z,8.10
2023-03-18T23:48:29.452Z,6.95
2023-03-18T23:50:56.648Z,7.78
2023-03-18T23:53:23.940Z,8.18
2023-03-18T23:55:51.123Z,7.97
2023-03-18T23:58:18.261Z,7.32
